sensor_id;sensor_type;location;lat;lon;timestamp;pressure;altitude;pressure_sealevel;temperature;humidity
44138;BME280;29800;55.942;37.314;2023-03-21T00:01:59;99053.41;;;2.60;59.06
44138;BME280;29800;55.942;37.314;2023-03-21T00:04:26;99060.09;;;2.57;59.30
44138;BME280;29800;55.942;37.314;2023-03-21T00:06:52;99057.59;;;2.56;58.73
44138;BME280;29800;55.942;37.314;2023-03-21T00:09:19;99049.91;;;2.53;59.20
44138;BME280;29800;55.942;37.314;2023-03-21T00:11:46;99046.78;;;2.56;59.41
44138;BME280;29800;55.942;37.314;2023-03-21T00:14:13;99040.94;;;2.59;59.83
44138;BME280;29800;55.942;37.314;2023-03-21T00:16:45;99042.78;;;2.65;59.37
44138;BME280;29800;55.942;37.314;2023-03-21T00:19:16;99044.19;;;2.74;59.39
44138;BME280;29800;55.942;37.314;2023-03-21T00:21:44;99046.25;;;2.79;58.45
44138;BME280;29800;55.942;37.314;2023-03-21T00:24:10;99044.97;;;2.82;58.72
44138;BME280;29800;55.942;37.314;2023-03-21T00:26:37;99037.28;;;2.79;58.51
44138;BME280;29800;55.942;37.314;2023-03-21T00:29:03;99033.00;;;2.71;58.46
44138;BME280;29800;55.942;37.314;2023-03-21T00:31:29;99029.09;;;2.60;59.11
44138;BME280;29800;55.942;37.314;2023-03-21T00:33:56;99031.78;;;2.60;58.94
44138;BME280;29800;55.942;37.314;2023-03-21T00:36:22;99025.31;;;2.68;59.06
44138;BME280;29800;55.942;37.314;2023-03-21T00:38:50;99019.69;;;2.69;59.30
44138;BME280;29800;55.942;37.314;2023-03-21T00:41:17;99014.91;;;2.71;59.28
44138;BME280;29800;55.942;37.314;2023-03-21T00:43:43;99012.19;;;2.71;58.99
44138;BME280;29800;55.942;37.314;2023-03-21T00:46:09;99013.22;;;2.70;58.38
44138;BME280;29800;55.942;37.314;2023-03-21T00:48:35;99012.41;;;2.70;58.60
44138;BME280;29800;55.942;37.314;2023-03-21T00:51:09;99011.38;;;2.71;59.02
44138;BME280;29800;55.942;37.314;2023-03-21T00:53:37;99011.38;;;2.71;58.59
44138;BME280;29800;55.942;37.314;2023-03-21T00:56:03;99009.31;;;2.66;58.67
44138;BME280;29800;55.942;37.314;2023-03-21T00:58:30;99006.19;;;2.69;58.69
44138;BME280;29800;55.942;37.314;2023-03-21T01:00:56;99003.06;;;2.72;58.83
44138;BME280;29800;55.942;37.314;2023-03-21T01:03:22;98995.56;;;2.74;58.71
44138;BME280;29800;55.942;37.314;2023-03-21T01:05:51;98998.84;;;2.76;58.92
44138;BME280;29800;55.942;37.314;2023-03-21T01:08:37;98996.38;;;2.75;58.61
44138;BME280;29800;55.942;37.314;2023-03-21T01:11:07;98990.16;;;2.74;59.06
44138;BME280;29800;55.942;37.314;2023-03-21T01:13:34;98993.28;;;2.71;59.43
44138;BME280;29800;55.942;37.314;2023-03-21T01:16:00;98999.31;;;2.67;59.98
44138;BME280;29800;55.942;37.314;2023-03-21T01:18:29;98986.41;;;2.69;59.49
44138;BME280;29800;55.942;37.314;2023-03-21T01:20:57;98988.31;;;2.68;59.87
44138;BME280;29800;55.942;37.314;2023-03-21T01:23:25;98992.03;;;2.74;60.25
44138;BME280;29800;55.942;37.314;2023-03-21T01:25:53;98988.03;;;2.76;59.90
44138;BME280;29800;55.942;37.314;2023-03-21T01:28:20;98981.44;;;2.72;59.45
44138;BME280;29800;55.942;37.314;2023-03-21T01:30:50;98978.91;;;2.78;59.89
44138;BME280;29800;55.942;37.314;2023-03-21T01:33:18;98977.66;;;2.73;60.22
44138;BME280;29800;55.942;37.314;2023-03-21T01:35:45;98975.59;;;2.75;59.61
44138;BME280;29800;55.942;37.314;2023-03-21T01:38:11;98975.75;;;2.81;59.52
44138;BME280;29800;55.942;37.314;2023-03-21T01:40:44;98979.03;;;2.89;58.97
44138;BME280;29800;55.942;37.314;2023-03-21T01:43:41;98977.50;;;3.00;58.86
44138;BME280;29800;55.942;37.314;2023-03-21T01:49:35;98979.19;;;2.94;58.77
44138;BME280;29800;55.942;37.314;2023-03-21T01:52:35;98977.31;;;2.95;58.76
44138;BME280;29800;55.942;37.314;2023-03-21T01:55:08;98980.91;;;2.89;59.21
44138;BME280;29800;55.942;37.314;2023-03-21T01:57:53;98975.50;;;2.89;59.88
44138;BME280;29800;55.942;37.314;2023-03-21T02:00:23;98969.03;;;2.90;59.15
44138;BME280;29800;55.942;37.314;2023-03-21T02:03:07;98972.59;;;2.90;59.79
44138;BME280;29800;55.942;37.314;2023-03-21T02:06:04;98980.38;;;3.05;58.86
44138;BME280;29800;55.942;37.314;2023-03-21T02:08:41;98967.28;;;3.02;59.29
44138;BME280;29800;55.942;37.314;2023-03-21T02:11:11;98971.91;;;2.95;59.67
44138;BME280;29800;55.942;37.314;2023-03-21T02:13:41;98970.09;;;2.89;60.14
44138;BME280;29800;55.942;37.314;2023-03-21T02:27:23;98969.94;;;3.09;59.83
44138;BME280;29800;55.942;37.314;2023-03-21T02:30:07;98962.16;;;2.94;60.03
44138;BME280;29800;55.942;37.314;2023-03-21T02:38:46;98958.59;;;3.00;59.51
44138;BME280;29800;55.942;37.314;2023-03-21T02:50:25;98953.44;;;2.92;60.52
44138;BME280;29800;55.942;37.314;2023-03-21T02:52:53;98951.00;;;2.84;59.73
44138;BME280;29800;55.942;37.314;2023-03-21T02:55:23;98939.72;;;2.87;59.94
44138;BME280;29800;55.942;37.314;2023-03-21T02:57:57;98938.91;;;2.86;59.76
44138;BME280;29800;55.942;37.314;2023-03-21T03:00:30;98945.72;;;2.96;60.09
44138;BME280;29800;55.942;37.314;2023-03-21T03:02:58;98946.16;;;2.92;59.41
44138;BME280;29800;55.942;37.314;2023-03-21T03:05:27;98943.66;;;2.91;60.19
44138;BME280;29800;55.942;37.314;2023-03-21T03:19:12;98937.66;;;2.89;60.55
44138;BME280;29800;55.942;37.314;2023-03-21T03:21:46;98925.41;;;2.86;59.90
44138;BME280;29800;55.942;37.314;2023-03-21T03:26:54;98932.69;;;2.86;60.05
44138;BME280;29800;55.942;37.314;2023-03-21T03:29:25;98923.59;;;3.05;59.19
44138;BME280;29800;55.942;37.314;2023-03-21T03:32:10;98924.31;;;2.94;60.39
44138;BME280;29800;55.942;37.314;2023-03-21T03:34:43;98923.50;;;2.87;59.92
44138;BME280;29800;55.942;37.314;2023-03-21T03:37:14;98924.16;;;2.89;60.55
44138;BME280;29800;55.942;37.314;2023-03-21T03:39:45;98918.31;;;2.92;60.43
44138;BME280;29800;55.942;37.314;2023-03-21T03:42:18;98925.50;;;2.98;60.62
44138;BME280;29800;55.942;37.314;2023-03-21T03:44:51;98927.16;;;2.99;59.96
44138;BME280;29800;55.942;37.314;2023-03-21T03:47:37;98923.44;;;3.00;60.58
44138;BME280;29800;55.942;37.314;2023-03-21T03:52:54;98917.41;;;2.98;60.94
44138;BME280;29800;55.942;37.314;2023-03-21T03:55:25;98915.75;;;2.97;60.39
44138;BME280;29800;55.942;37.314;2023-03-21T03:57:56;98910.19;;;2.92;60.87
44138;BME280;29800;55.942;37.314;2023-03-21T04:00:25;98901.84;;;2.93;60.67
44138;BME280;29800;55.942;37.314;2023-03-21T04:02:53;98903.28;;;2.96;61.28
44138;BME280;29800;55.942;37.314;2023-03-21T04:05:22;98903.06;;;2.98;60.36
44138;BME280;29800;55.942;37.314;2023-03-21T04:07:49;98904.88;;;3.04;60.91
44138;BME280;29800;55.942;37.314;2023-03-21T04:10:18;98905.69;;;3.04;61.21
44138;BME280;29800;55.942;37.314;2023-03-21T04:12:45;98898.31;;;3.18;60.54
44138;BME280;29800;55.942;37.314;2023-03-21T04:15:37;98902.00;;;3.24;60.25
44138;BME280;29800;55.942;37.314;2023-03-21T04:18:12;98901.34;;;3.28;60.56
44138;BME280;29800;55.942;37.314;2023-03-21T04:20:38;98899.38;;;3.36;60.61
44138;BME280;29800;55.942;37.314;2023-03-21T04:23:05;98894.34;;;3.39;60.69
44138;BME280;29800;55.942;37.314;2023-03-21T04:25:36;98892.63;;;3.45;60.81
44138;BME280;29800;55.942;37.314;2023-03-21T04:28:04;98899.47;;;3.47;59.84
44138;BME280;29800;55.942;37.314;2023-03-21T04:30:48;98893.44;;;3.45;60.33
44138;BME280;29800;55.942;37.314;2023-03-21T04:33:18;98894.81;;;3.36;59.91
44138;BME280;29800;55.942;37.314;2023-03-21T04:35:54;98893.59;;;3.32;59.93
44138;BME280;29800;55.942;37.314;2023-03-21T04:38:25;98895.84;;;3.35;60.32
44138;BME280;29800;55.942;37.314;2023-03-21T04:40:58;98892.84;;;3.62;59.41
44138;BME280;29800;55.942;37.314;2023-03-21T04:43:25;98891.97;;;3.68;58.25
44138;BME280;29800;55.942;37.314;2023-03-21T04:45:51;98892.47;;;3.40;59.92
44138;BME280;29800;55.942;37.314;2023-03-21T04:48:18;98897.34;;;3.31;60.23
44138;BME280;29800;55.942;37.314;2023-03-21T04:50:45;98893.44;;;3.27;60.12
44138;BME280;29800;55.942;37.314;2023-03-21T04:53:12;98892.44;;;3.21;60.60
44138;BME280;29800;55.942;37.314;2023-03-21T04:55:38;98900.84;;;3.13;60.85
44138;BME280;29800;55.942;37.314;2023-03-21T04:58:05;98898.81;;;3.08;60.81
44138;BME280;29800;55.942;37.314;2023-03-21T05:00:32;98894.44;;;3.07;61.74
44138;BME280;29800;55.942;37.314;2023-03-21T05:03:04;98895.03;;;3.09;61.07
44138;BME280;29800;55.942;37.314;2023-03-21T05:05:37;98896.28;;;3.13;61.61
44138;BME280;29800;55.942;37.314;2023-03-21T05:08:04;98896.28;;;3.13;61.09
44138;BME280;29800;55.942;37.314;2023-03-21T05:10:31;98898.53;;;3.17;61.62
44138;BME280;29800;55.942;37.314;2023-03-21T05:12:58;98897.03;;;3.21;61.29
44138;BME280;29800;55.942;37.314;2023-03-21T05:15:26;98894.16;;;3.16;61.42
44138;BME280;29800;55.942;37.314;2023-03-21T05:17:52;98887.31;;;3.13;61.81
44138;BME280;29800;55.942;37.314;2023-03-21T05:20:19;98892.50;;;3.15;61.80
44138;BME280;29800;55.942;37.314;2023-03-21T05:22:46;98895.84;;;3.17;61.27
44138;BME280;29800;55.942;37.314;2023-03-21T05:25:16;98895.84;;;3.17;61.23
44138;BME280;29800;55.942;37.314;2023-03-21T05:28:06;98899.94;;;3.19;61.71
44138;BME280;29800;55.942;37.314;2023-03-21T05:30:33;98894.75;;;3.18;61.32
44138;BME280;29800;55.942;37.314;2023-03-21T05:33:01;98903.47;;;3.20;61.50
44138;BME280;29800;55.942;37.314;2023-03-21T05:35:28;98901.84;;;3.19;61.55
44138;BME280;29800;55.942;37.314;2023-03-21T05:37:57;98899.13;;;3.19;62.11
44138;BME280;29800;55.942;37.314;2023-03-21T05:40:26;98896.59;;;3.24;61.78
44138;BME280;29800;55.942;37.314;2023-03-21T05:42:56;98893.66;;;3.25;62.52
44138;BME280;29800;55.942;37.314;2023-03-21T05:45:24;98889.50;;;3.23;62.50
44138;BME280;29800;55.942;37.314;2023-03-21T05:47:51;98887.03;;;3.21;62.91
44138;BME280;29800;55.942;37.314;2023-03-21T05:50:19;98886.59;;;3.24;63.32
44138;BME280;29800;55.942;37.314;2023-03-21T05:52:54;98891.31;;;3.29;63.91
44138;BME280;29800;55.942;37.314;2023-03-21T05:55:21;98889.84;;;3.33;64.48
44138;BME280;29800;55.942;37.314;2023-03-21T05:57:47;98891.47;;;3.34;64.23
44138;BME280;29800;55.942;37.314;2023-03-21T06:00:23;98889.78;;;3.40;64.41
44138;BME280;29800;55.942;37.314;2023-03-21T06:03:05;98890.38;;;3.42;64.26
44138;BME280;29800;55.942;37.314;2023-03-21T06:05:51;98895.78;;;3.60;63.20
44138;BME280;29800;55.942;37.314;2023-03-21T06:08:22;98890.66;;;3.34;64.99
44138;BME280;29800;55.942;37.314;2023-03-21T06:10:49;98882.84;;;3.25;65.46
44138;BME280;29800;55.942;37.314;2023-03-21T06:13:16;98892.84;;;3.25;65.70
44138;BME280;29800;55.942;37.314;2023-03-21T06:15:44;98883.72;;;3.19;66.44
44138;BME280;29800;55.942;37.314;2023-03-21T06:18:15;98881.81;;;3.26;66.88
44138;BME280;29800;55.942;37.314;2023-03-21T06:20:52;98881.50;;;3.35;67.04
44138;BME280;29800;55.942;37.314;2023-03-21T06:23:19;98879.78;;;3.40;67.67
44138;BME280;29800;55.942;37.314;2023-03-21T06:25:47;98885.09;;;3.47;67.55
44138;BME280;29800;55.942;37.314;2023-03-21T06:28:14;98878.22;;;3.51;67.94
44138;BME280;29800;55.942;37.314;2023-03-21T06:30:40;98881.06;;;3.56;67.86
44138;BME280;29800;55.942;37.314;2023-03-21T06:33:18;98869.56;;;3.61;68.59
44138;BME280;29800;55.942;37.314;2023-03-21T06:35:52;98879.88;;;3.71;68.60
44138;BME280;29800;55.942;37.314;2023-03-21T06:38:19;98874.81;;;3.74;68.26
44138;BME280;29800;55.942;37.314;2023-03-21T06:40:47;98873.97;;;3.74;68.53
44138;BME280;29800;55.942;37.314;2023-03-21T06:43:13;98864.66;;;3.70;68.72
44138;BME280;29800;55.942;37.314;2023-03-21T06:45:42;98862.56;;;3.72;68.56
44138;BME280;29800;55.942;37.314;2023-03-21T06:48:10;98856.47;;;3.76;69.27
44138;BME280;29800;55.942;37.314;2023-03-21T06:50:47;98856.53;;;3.88;69.50
44138;BME280;29800;55.942;37.314;2023-03-21T06:53:14;98857.50;;;3.94;69.57
44138;BME280;29800;55.942;37.314;2023-03-21T06:56:11;98854.25;;;4.03;69.42
44138;BME280;29800;55.942;37.314;2023-03-21T06:58:40;98845.41;;;4.08;69.89
44138;BME280;29800;55.942;37.314;2023-03-21T07:01:11;98840.16;;;4.13;69.93
44138;BME280;29800;55.942;37.314;2023-03-21T07:03:50;98848.56;;;4.23;69.66
44138;BME280;29800;55.942;37.314;2023-03-21T07:06:21;98843.41;;;4.34;70.07
44138;BME280;29800;55.942;37.314;2023-03-21T07:08:47;98840.94;;;4.44;70.42
44138;BME280;29800;55.942;37.314;2023-03-21T07:11:14;98841.06;;;4.49;70.47
44138;BME280;29800;55.942;37.314;2023-03-21T07:13:41;98842.84;;;4.55;70.81
44138;BME280;29800;55.942;37.314;2023-03-21T07:16:08;98837.56;;;4.60;70.77
44138;BME280;29800;55.942;37.314;2023-03-21T07:18:34;98846.44;;;4.68;70.94
44138;BME280;29800;55.942;37.314;2023-03-21T07:21:01;98842.78;;;4.74;71.40
44138;BME280;29800;55.942;37.314;2023-03-21T07:23:28;98840.19;;;4.79;71.49
44138;BME280;29800;55.942;37.314;2023-03-21T07:25:54;98839.84;;;4.87;71.81
44138;BME280;29800;55.942;37.314;2023-03-21T07:28:22;98828.03;;;4.93;71.96
44138;BME280;29800;55.942;37.314;2023-03-21T07:30:55;98827.94;;;5.00;71.94
44138;BME280;29800;55.942;37.314;2023-03-21T07:33:22;98824.16;;;5.01;71.66
44138;BME280;29800;55.942;37.314;2023-03-21T07:35:50;98814.84;;;5.09;72.17
44138;BME280;29800;55.942;37.314;2023-03-21T07:38:18;98810.59;;;5.13;72.36
44138;BME280;29800;55.942;37.314;2023-03-21T07:40:45;98808.47;;;5.15;72.38
44138;BME280;29800;55.942;37.314;2023-03-21T07:43:12;98816.72;;;5.20;72.14
44138;BME280;29800;55.942;37.314;2023-03-21T07:45:43;98806.94;;;5.19;72.21
44138;BME280;29800;55.942;37.314;2023-03-21T07:48:10;98802.94;;;5.22;72.50
44138;BME280;29800;55.942;37.314;2023-03-21T07:50:38;98804.44;;;5.29;72.40
44138;BME280;29800;55.942;37.314;2023-03-21T07:53:06;98793.47;;;5.24;72.54
44138;BME280;29800;55.942;37.314;2023-03-21T07:55:32;98801.72;;;5.29;72.50
44138;BME280;29800;55.942;37.314;2023-03-21T07:58:03;98796.53;;;5.40;72.59
44138;BME280;29800;55.942;37.314;2023-03-21T08:00:30;98791.00;;;5.34;72.22
44138;BME280;29800;55.942;37.314;2023-03-21T08:02:57;98788.63;;;5.38;72.16
44138;BME280;29800;55.942;37.314;2023-03-21T08:05:28;98801.09;;;5.39;72.55
44138;BME280;29800;55.942;37.314;2023-03-21T08:07:56;98794.06;;;5.38;71.89
44138;BME280;29800;55.942;37.314;2023-03-21T08:10:22;98804.06;;;5.38;72.29
44138;BME280;29800;55.942;37.314;2023-03-21T08:12:48;98800.28;;;5.39;72.00
44138;BME280;29800;55.942;37.314;2023-03-21T08:15:15;98800.78;;;5.36;72.21
44138;BME280;29800;55.942;37.314;2023-03-21T08:17:41;98800.78;;;5.36;72.44
44138;BME280;29800;55.942;37.314;2023-03-21T08:20:13;98799.47;;;5.38;72.53
44138;BME280;29800;55.942;37.314;2023-03-21T08:22:42;98799.72;;;5.37;72.30
44138;BME280;29800;55.942;37.314;2023-03-21T08:25:14;98801.47;;;5.43;72.24
44138;BME280;29800;55.942;37.314;2023-03-21T08:27:43;98796.63;;;5.45;72.53
44138;BME280;29800;55.942;37.314;2023-03-21T08:30:12;98806.16;;;5.47;72.38
44138;BME280;29800;55.942;37.314;2023-03-21T08:32:40;98805.22;;;5.53;72.78
44138;BME280;29800;55.942;37.314;2023-03-21T08:35:09;98805.94;;;5.61;72.64
44138;BME280;29800;55.942;37.314;2023-03-21T08:37:37;98798.69;;;5.66;72.47
44138;BME280;29800;55.942;37.314;2023-03-21T08:40:06;98798.78;;;5.71;71.90
44138;BME280;29800;55.942;37.314;2023-03-21T08:42:40;98792.63;;;5.76;71.67
44138;BME280;29800;55.942;37.314;2023-03-21T08:45:08;98792.88;;;5.75;71.59
44138;BME280;29800;55.942;37.314;2023-03-21T08:47:34;98792.97;;;5.80;71.38
44138;BME280;29800;55.942;37.314;2023-03-21T08:50:01;98788.13;;;5.82;71.24
44138;BME280;29800;55.942;37.314;2023-03-21T08:52:29;98783.28;;;5.84;71.08
44138;BME280;29800;55.942;37.314;2023-03-21T08:54:55;98779.50;;;5.85;70.68
44138;BME280;29800;55.942;37.314;2023-03-21T08:57:21;98779.88;;;5.77;70.77
44138;BME280;29800;55.942;37.314;2023-03-21T08:59:48;98778.72;;;5.73;71.03
44138;BME280;29800;55.942;37.314;2023-03-21T09:02:15;98775.53;;;5.76;70.75
44138;BME280;29800;55.942;37.314;2023-03-21T09:04:42;98772.91;;;5.81;70.67
44138;BME280;29800;55.942;37.314;2023-03-21T09:07:09;98775.47;;;5.87;70.27
44138;BME280;29800;55.942;37.314;2023-03-21T09:09:39;98772.16;;;5.97;70.61
44138;BME280;29800;55.942;37.314;2023-03-21T09:12:06;98773.41;;;6.06;70.00
44138;BME280;29800;55.942;37.314;2023-03-21T09:14:32;98765.44;;;6.17;69.64
44138;BME280;29800;55.942;37.314;2023-03-21T09:17:00;98778.63;;;6.25;69.51
44138;BME280;29800;55.942;37.314;2023-03-21T09:19:26;98775.50;;;6.33;69.51
44138;BME280;29800;55.942;37.314;2023-03-21T09:21:53;98770.72;;;6.40;68.86
44138;BME280;29800;55.942;37.314;2023-03-21T09:24:23;98774.22;;;6.53;68.60
44138;BME280;29800;55.942;37.314;2023-03-21T09:26:49;98775.84;;;6.71;68.47
44138;BME280;29800;55.942;37.314;2023-03-21T09:29:17;98777.97;;;6.86;68.03
44138;BME280;29800;55.942;37.314;2023-03-21T09:31:45;98770.16;;;7.11;67.46
44138;BME280;29800;55.942;37.314;2023-03-21T09:34:12;98762.84;;;7.34;66.29
44138;BME280;29800;55.942;37.314;2023-03-21T09:36:42;98769.19;;;7.62;65.61
44138;BME280;29800;55.942;37.314;2023-03-21T09:39:13;98759.53;;;7.76;64.59
44138;BME280;29800;55.942;37.314;2023-03-21T09:41:56;98760.09;;;7.78;64.25
44138;BME280;29800;55.942;37.314;2023-03-21T09:47:31;98762.34;;;7.59;64.06
44138;BME280;29800;55.942;37.314;2023-03-21T09:50:18;98756.31;;;7.57;64.30
44138;BME280;29800;55.942;37.314;2023-03-21T09:53:28;98755.50;;;7.57;64.78
44138;BME280;29800;55.942;37.314;2023-03-21T09:55:59;98746.13;;;7.47;64.63
44138;BME280;29800;55.942;37.314;2023-03-21T09:58:38;98748.75;;;7.59;64.31
44138;BME280;29800;55.942;37.314;2023-03-21T10:01:22;98744.16;;;7.65;64.53
44138;BME280;29800;55.942;37.314;2023-03-21T10:04:11;98742.53;;;7.91;63.71
44138;BME280;29800;55.942;37.314;2023-03-21T10:06:39;98730.97;;;8.06;63.17
44138;BME280;29800;55.942;37.314;2023-03-21T10:09:14;98735.00;;;8.31;62.06
44138;BME280;29800;55.942;37.314;2023-03-21T10:11:49;98729.00;;;8.28;61.40
44138;BME280;29800;55.942;37.314;2023-03-21T10:17:39;98709.00;;;8.50;60.07
44138;BME280;29800;55.942;37.314;2023-03-21T10:20:21;98711.25;;;8.58;59.26
44138;BME280;29800;55.942;37.314;2023-03-21T10:22:51;98693.75;;;8.54;58.20
44138;BME280;29800;55.942;37.314;2023-03-21T10:25:47;98695.19;;;8.67;57.50
44138;BME280;29800;55.942;37.314;2023-03-21T10:28:21;98698.75;;;8.62;57.48
44138;BME280;29800;55.942;37.314;2023-03-21T10:30:58;98693.00;;;8.64;56.06
44138;BME280;29800;55.942;37.314;2023-03-21T10:33:30;98699.28;;;8.64;55.54
44138;BME280;29800;55.942;37.314;2023-03-21T10:35:59;98691.13;;;8.70;55.22
44138;BME280;29800;55.942;37.314;2023-03-21T10:38:27;98695.84;;;8.79;55.26
44138;BME280;29800;55.942;37.314;2023-03-21T10:40:55;98692.09;;;8.91;55.14
44138;BME280;29800;55.942;37.314;2023-03-21T10:45:51;98691.31;;;9.00;52.79
44138;BME280;29800;55.942;37.314;2023-03-21T10:48:18;98686.16;;;9.09;52.01
44138;BME280;29800;55.942;37.314;2023-03-21T10:50:47;98698.16;;;9.08;51.09
44138;BME280;29800;55.942;37.314;2023-03-21T10:53:21;98687.56;;;9.12;51.25
44138;BME280;29800;55.942;37.314;2023-03-21T10:55:51;98685.13;;;9.20;52.03
44138;BME280;29800;55.942;37.314;2023-03-21T10:58:22;98695.22;;;9.20;51.97
44138;BME280;29800;55.942;37.314;2023-03-21T11:00:57;98675.06;;;9.31;51.90
44138;BME280;29800;55.942;37.314;2023-03-21T11:03:29;98677.81;;;9.36;51.64
44138;BME280;29800;55.942;37.314;2023-03-21T11:06:02;98678.34;;;9.33;52.19
44138;BME280;29800;55.942;37.314;2023-03-21T11:08:37;98683.53;;;9.35;50.96
44138;BME280;29800;55.942;37.314;2023-03-21T11:11:07;98686.28;;;9.35;51.38
44138;BME280;29800;55.942;37.314;2023-03-21T11:13:37;98686.03;;;9.47;50.61
44138;BME280;29800;55.942;37.314;2023-03-21T11:16:11;98681.13;;;9.59;51.28
44138;BME280;29800;55.942;37.314;2023-03-21T11:18:48;98679.00;;;9.71;50.12
44138;BME280;29800;55.942;37.314;2023-03-21T11:21:15;98686.94;;;9.83;49.20
44138;BME280;29800;55.942;37.314;2023-03-21T11:23:47;98679.84;;;9.87;48.78
44138;BME280;29800;55.942;37.314;2023-03-21T11:26:30;98680.66;;;9.93;48.53
44138;BME280;29800;55.942;37.314;2023-03-21T11:28:58;98679.59;;;9.89;48.19
44138;BME280;29800;55.942;37.314;2023-03-21T11:31:40;98669.47;;;10.10;48.36
44138;BME280;29800;55.942;37.314;2023-03-21T11:34:07;98667.56;;;10.10;47.22
44138;BME280;29800;55.942;37.314;2023-03-21T11:36:36;98674.13;;;10.20;47.01
44138;BME280;29800;55.942;37.314;2023-03-21T11:39:32;98670.31;;;10.41;46.44
44138;BME280;29800;55.942;37.314;2023-03-21T11:41:59;98676.56;;;10.21;45.29
44138;BME280;29800;55.942;37.314;2023-03-21T11:44:31;98664.84;;;10.10;45.23
44138;BME280;29800;55.942;37.314;2023-03-21T11:46:58;98671.34;;;9.84;45.88
44138;BME280;29800;55.942;37.314;2023-03-21T11:49:26;98666.69;;;9.64;45.57
44138;BME280;29800;55.942;37.314;2023-03-21T11:52:02;98656.84;;;9.57;46.12
44138;BME280;29800;55.942;37.314;2023-03-21T11:54:47;98660.66;;;9.46;45.79
44138;BME280;29800;55.942;37.314;2023-03-21T11:57:30;98651.31;;;9.32;45.94
44138;BME280;29800;55.942;37.314;2023-03-21T12:00:22;98661.97;;;9.33;45.39
44138;BME280;29800;55.942;37.314;2023-03-21T12:06:00;98644.34;;;8.98;46.01
44138;BME280;29800;55.942;37.314;2023-03-21T12:08:42;98637.25;;;8.97;46.10
44138;BME280;29800;55.942;37.314;2023-03-21T12:11:33;98634.53;;;8.97;46.84
44138;BME280;29800;55.942;37.314;2023-03-21T12:14:10;98635.63;;;9.07;45.41
44138;BME280;29800;55.942;37.314;2023-03-21T12:24:49;98620.84;;;8.87;45.12
44138;BME280;29800;55.942;37.314;2023-03-21T12:41:44;98621.28;;;9.32;43.92
44138;BME280;29800;55.942;37.314;2023-03-21T12:44:14;98617.72;;;9.31;43.54
44138;BME280;29800;55.942;37.314;2023-03-21T12:49:32;98611.22;;;9.53;43.10
44138;BME280;29800;55.942;37.314;2023-03-21T12:52:19;98615.03;;;9.57;43.21
44138;BME280;29800;55.942;37.314;2023-03-21T12:57:40;98609.31;;;9.69;41.88
44138;BME280;29800;55.942;37.314;2023-03-21T13:02:48;98604.69;;;9.69;41.79
44138;BME280;29800;55.942;37.314;2023-03-21T13:07:47;98606.31;;;9.86;41.02
44138;BME280;29800;55.942;37.314;2023-03-21T13:10:18;98603.31;;;9.92;40.90
44138;BME280;29800;55.942;37.314;2023-03-21T13:16:09;98600.31;;;10.25;40.34
44138;BME280;29800;55.942;37.314;2023-03-21T13:19:01;98599.19;;;10.36;40.50
44138;BME280;29800;55.942;37.314;2023-03-21T13:22:01;98607.41;;;10.46;40.25
44138;BME280;29800;55.942;37.314;2023-03-21T13:27:46;98607.41;;;10.41;39.50
44138;BME280;29800;55.942;37.314;2023-03-21T13:29:51;98608.50;;;10.40;39.40
44138;BME280;29800;55.942;37.314;2023-03-21T13:32:29;98604.66;;;10.31;39.79
44138;BME280;29800;55.942;37.314;2023-03-21T13:34:58;98594.84;;;10.04;39.90
44138;BME280;29800;55.942;37.314;2023-03-21T13:37:31;98598.94;;;9.91;40.18
44138;BME280;29800;55.942;37.314;2023-03-21T13:40:04;98589.91;;;9.70;40.38
44138;BME280;29800;55.942;37.314;2023-03-21T13:42:43;98591.00;;;9.54;40.42
44138;BME280;29800;55.942;37.314;2023-03-21T13:45:23;98585.53;;;9.49;40.15
44138;BME280;29800;55.942;37.314;2023-03-21T13:47:52;98579.47;;;9.26;40.82
44138;BME280;29800;55.942;37.314;2023-03-21T13:50:26;98584.94;;;9.26;41.18
44138;BME280;29800;55.942;37.314;2023-03-21T13:55:44;98587.63;;;9.11;41.39
44138;BME280;29800;55.942;37.314;2023-03-21T14:03:44;98581.91;;;9.17;41.09
44138;BME280;29800;55.942;37.314;2023-03-21T14:06:12;98577.53;;;9.11;40.95
44138;BME280;29800;55.942;37.314;2023-03-21T14:08:42;98579.69;;;9.09;40.96
44138;BME280;29800;55.942;37.314;2023-03-21T14:11:13;98578.34;;;9.12;41.43
44138;BME280;29800;55.942;37.314;2023-03-21T14:13:43;98572.31;;;9.05;41.28
44138;BME280;29800;55.942;37.314;2023-03-21T14:16:13;98576.13;;;8.98;41.55
44138;BME280;29800;55.942;37.314;2023-03-21T14:21:33;98570.09;;;8.96;42.05
44138;BME280;29800;55.942;37.314;2023-03-21T14:24:05;98573.63;;;8.87;41.66
44138;BME280;29800;55.942;37.314;2023-03-21T14:26:39;98573.34;;;8.83;41.84
44138;BME280;29800;55.942;37.314;2023-03-21T14:29:16;98578.78;;;8.78;41.60
44138;BME280;29800;55.942;37.314;2023-03-21T14:31:46;98573.84;;;8.75;41.95
44138;BME280;29800;55.942;37.314;2023-03-21T14:34:14;98565.66;;;8.70;42.09
44138;BME280;29800;55.942;37.314;2023-03-21T14:36:42;98574.09;;;8.68;41.78
44138;BME280;29800;55.942;37.314;2023-03-21T14:39:20;98568.91;;;8.67;41.99
44138;BME280;29800;55.942;37.314;2023-03-21T14:41:53;98571.88;;;8.60;41.68
44138;BME280;29800;55.942;37.314;2023-03-21T14:44:35;98566.41;;;8.60;42.13
44138;BME280;29800;55.942;37.314;2023-03-21T14:47:23;98565.63;;;8.59;41.93
44138;BME280;29800;55.942;37.314;2023-03-21T14:49:50;98563.34;;;8.46;41.83
44138;BME280;29800;55.942;37.314;2023-03-21T14:52:22;98561.16;;;8.43;42.09
44138;BME280;29800;55.942;37.314;2023-03-21T14:54:51;98566.00;;;8.36;41.91
44138;BME280;29800;55.942;37.314;2023-03-21T14:57:21;98563.53;;;8.34;41.42
44138;BME280;29800;55.942;37.314;2023-03-21T14:59:51;98565.44;;;8.34;42.22
44138;BME280;29800;55.942;37.314;2023-03-21T15:02:22;98563.75;;;8.27;41.92
44138;BME280;29800;55.942;37.314;2023-03-21T15:04:53;98568.13;;;8.23;42.60
44138;BME280;29800;55.942;37.314;2023-03-21T15:07:30;98576.84;;;8.25;42.00
44138;BME280;29800;55.942;37.314;2023-03-21T15:09:59;98565.34;;;8.18;42.05
44138;BME280;29800;55.942;37.314;2023-03-21T15:12:32;98574.59;;;8.17;42.39